SBCY/CGB METAR and TAF weather

Enter ICAO airport designator
Station Type Date Time Source
SBCY METAR 2022/07/01 02:00 UTC NOAA

SBCY 010200Z 00000KT CAVOK 22/17 Q1015


Station Type Date Time Source
SBCY Decoded METAR 2022/07/01 02:00 UTC NOAA

Cuiaba Aeroporto , Brazil (SBCY) 15-39S 056-06W 182M
Jun 30, 2022 - 10:00 PM EDT / 2022.07.01 0200 UTC
Wind: Calm:0
Visibility: greater than 7 mile(s):0
Temperature: 71 F (22 C)
Dew Point: 62 F (17 C)
Relative Humidity: 73%
Pressure (altimeter): 29.97 in. Hg (1015 hPa)
ob: SBCY 010200Z 00000KT CAVOK 22/17 Q1015
cycle: 2

Station Type Date Time Source
SBCY TAF 2022/07/01 06:36 UTC NOAA

TAF SBCY 010035Z 0106/0206 10005KT CAVOK TN18/0109Z TX33/0119Z
BECMG 0108/0110 33005KT
BECMG 0113/0115 01010KT
BECMG 0119/0120 08007KT
BECMG 0123/0201 36007KT
RMK PGB

Example: see airport list